Douglas, AL (35964)

6:19 AM CDT on September 30, 2014 (GMT -0500)
Albertville | Change Station
CLOSE
Current Station
Airport
Location: Albertville,
Elevation: 1033 ft
Nearby Weather Stations
Active Advisory: Special Statement

Elev 1033 ft 34.23 °N, 86.26 °W | Updated 24 minutes ago

Overcast
Overcast
64 °F
Feels Like 64 °F
N
5
Wind Variable Wind from ESE

Today
High -- | Low -- °F
--% Chance of Precip.
Yesterday
High -- | Low -- °F
Precip. -- in
6:39 AM 6:30 PM
Waxing Crescent, 35% visible
Pressure 29.97 in
Visibility 10.0 miles
Clouds Overcast 600 ft
Dew Point 64 °F
Humidity 100%
Rainfall 0.00 in
Snow Depth Not available.
UV 0 out of 12
Pollen 5.80 out of 12
Ozone Good
PM2.5 Good
Flu Activity Not available.
METAR K8A0 301055Z AUTO 11004KT 10SM OVC006 18/18 A2997 RMK AO2

More Conditions Fewer Conditions

Pressure 29.97 in
Visibility 10.0 miles
Clouds Overcast 600 ft
Dew Point 64 °F
Humidity 100%
Rainfall 0.00 in
Snow Depth Not available.
UV 0 out of 12
Pollen 5.80 out of 12
Ozone Good
PM2.5 Good
Flu Activity Not available.
METAR K8A0 301055Z AUTO 11004KT 10SM OVC006 18/18 A2997 RMK AO2

More Conditions Fewer Conditions

10-Day Weather Forecast

Almanac

Astronomy

Sep. 30, 2014 Rise Set
Actual Time 6:39 AM CDT 6:30 PM CDT
Civil Twilight 6:14 AM CDT 6:55 PM CDT
Nautical Twilight 5:45 AM CDT 7:24 PM CDT
Astronomical Twilight 5:15 AM CDT 7:54 PM CDT
Moon 12:34 PM CDT 11:12 PM CDT
Length of Visible Light 12h 41m
Length of Day
11h 51m
Tomorrow will be 2m 7s shorter.
Waxing Crescent, 35% of the Moon is Illuminated
Today
Waxing Crescent
Oct 1
First Quarter
Oct 8
Full
Oct 15
Last Quarter
Oct 23
New

Today's Extremes

State Highs State Lows

Community

WunderPhotos

Upload Photos

1,757,615 photos uploaded!

WunderBlogs® & News

Nearby

Air Quality

  Air Quality AQ Index Pollutant
Yesterday Good
PM10
Yesterday Good
OZONE
Current Good
PM2.5
Current Good
OZONE
Tuesday Moderate
PM2.5
Tuesday Good
OZONE

Snow Depth

Station Depth Elevation
No new snow has been reported.

Earthquake Activity

City Distance Mag. Time & Date
No recent earthquake activity has been reported nearby.
Minimum magnitude displayed is 2.5.

Coastal Water Temperatures

Place Temperature
No Stations Reporting

Nearby Weather Stations